Terminal Aerodrome Forecast
Issued by NWS

Current Version | Previous Version | Text Only | Print | Product List | Glossary On
Versions: 1 2 3 4 5 6 7 8 9 10 11 12 13 14 15 16 17 18 19 20 21 22 23 24
804
FTUS46 KPQR 170536
TAFONP
TAF
KONP 170536Z 1706/1806 09008KT P6SM SCT060 BKN120
     FM171000 15012G20KT P6SM BKN050 OVC090
     FM171500 18017G27KT 6SM -RA SCT030 OVC050
     FM171900 19020G30KT 5SM -RA BR BKN022 OVC035
     FM172300 19025G38KT 2SM RA BR BKN012 OVC022=

USA.gov is the U.S. government's official web portal to all federal, state and local government web resources and services.